sensor_id;sensor_type;location;lat;lon;timestamp;temperature;humidity
48734;DHT22;34530;52.084;5.146;2022-12-29T00:01:50;16.70;78.70
48734;DHT22;34530;52.084;5.146;2022-12-29T00:04:17;16.70;78.70
48734;DHT22;34530;52.084;5.146;2022-12-29T00:06:43;16.70;78.80
48734;DHT22;34530;52.084;5.146;2022-12-29T00:09:11;16.70;78.80
48734;DHT22;34530;52.084;5.146;2022-12-29T00:11:37;16.70;78.80
48734;DHT22;34530;52.084;5.146;2022-12-29T00:14:03;16.70;78.80
48734;DHT22;34530;52.084;5.146;2022-12-29T00:16:48;16.70;78.80
48734;DHT22;34530;52.084;5.146;2022-12-29T00:19:13;16.70;78.90
48734;DHT22;34530;52.084;5.146;2022-12-29T00:21:58;16.60;78.90
48734;DHT22;34530;52.084;5.146;2022-12-29T00:24:46;16.60;78.80
48734;DHT22;34530;52.084;5.146;2022-12-29T00:27:28;16.60;78.90
48734;DHT22;34530;52.084;5.146;2022-12-29T00:30:15;16.60;78.90
48734;DHT22;34530;52.084;5.146;2022-12-29T00:33:00;16.50;78.90
48734;DHT22;34530;52.084;5.146;2022-12-29T00:35:52;16.50;79.60
48734;DHT22;34530;52.084;5.146;2022-12-29T00:38:19;16.60;78.90
48734;DHT22;34530;52.084;5.146;2022-12-29T00:41:04;16.60;79.00
48734;DHT22;34530;52.084;5.146;2022-12-29T00:43:48;16.60;79.00
48734;DHT22;34530;52.084;5.146;2022-12-29T00:46:33;16.50;78.90
48734;DHT22;34530;52.084;5.146;2022-12-29T00:49:01;16.50;78.90
48734;DHT22;34530;52.084;5.146;2022-12-29T00:51:46;16.50;78.90
48734;DHT22;34530;52.084;5.146;2022-12-29T00:54:11;16.50;79.00
48734;DHT22;34530;52.084;5.146;2022-12-29T00:56:37;16.50;79.00
48734;DHT22;34530;52.084;5.146;2022-12-29T00:59:08;16.50;78.90
48734;DHT22;34530;52.084;5.146;2022-12-29T01:01:35;16.50;78.90
48734;DHT22;34530;52.084;5.146;2022-12-29T01:04:01;16.50;78.90
48734;DHT22;34530;52.084;5.146;2022-12-29T01:06:27;16.50;78.90
48734;DHT22;34530;52.084;5.146;2022-12-29T01:08:53;16.50;78.90
48734;DHT22;34530;52.084;5.146;2022-12-29T01:11:37;16.50;78.90
48734;DHT22;34530;52.084;5.146;2022-12-29T01:14:03;16.50;78.90
48734;DHT22;34530;52.084;5.146;2022-12-29T01:16:29;16.50;78.90
48734;DHT22;34530;52.084;5.146;2022-12-29T01:18:55;16.50;78.90
48734;DHT22;34530;52.084;5.146;2022-12-29T01:21:21;16.50;78.90
48734;DHT22;34530;52.084;5.146;2022-12-29T01:23:46;16.50;78.90
48734;DHT22;34530;52.084;5.146;2022-12-29T01:26:14;16.50;78.90
48734;DHT22;34530;52.084;5.146;2022-12-29T01:28:39;16.50;79.60
48734;DHT22;34530;52.084;5.146;2022-12-29T01:31:07;16.50;78.90
48734;DHT22;34530;52.084;5.146;2022-12-29T01:33:33;16.50;78.90
48734;DHT22;34530;52.084;5.146;2022-12-29T01:36:03;16.50;78.90
48734;DHT22;34530;52.084;5.146;2022-12-29T01:38:29;16.40;78.80
48734;DHT22;34530;52.084;5.146;2022-12-29T01:40:55;16.50;78.90
48734;DHT22;34530;52.084;5.146;2022-12-29T01:43:20;16.50;78.90
48734;DHT22;34530;52.084;5.146;2022-12-29T01:45:50;16.50;78.90
48734;DHT22;34530;52.084;5.146;2022-12-29T01:48:18;16.40;78.80
48734;DHT22;34530;52.084;5.146;2022-12-29T01:50:52;16.50;78.90
48734;DHT22;34530;52.084;5.146;2022-12-29T01:53:22;16.50;79.60
48734;DHT22;34530;52.084;5.146;2022-12-29T01:55:53;16.50;78.90
48734;DHT22;34530;52.084;5.146;2022-12-29T01:58:22;16.50;78.90
48734;DHT22;34530;52.084;5.146;2022-12-29T02:00:48;16.40;78.80
48734;DHT22;34530;52.084;5.146;2022-12-29T02:03:14;16.40;78.80
48734;DHT22;34530;52.084;5.146;2022-12-29T02:05:57;16.40;78.80
48734;DHT22;34530;52.084;5.146;2022-12-29T02:08:28;16.50;78.80
48734;DHT22;34530;52.084;5.146;2022-12-29T02:10:54;16.50;78.90
48734;DHT22;34530;52.084;5.146;2022-12-29T02:13:20;16.40;78.80
48734;DHT22;34530;52.084;5.146;2022-12-29T02:32:03;16.40;78.80
48734;DHT22;34530;52.084;5.146;2022-12-29T02:39:56;16.40;78.80
48734;DHT22;34530;52.084;5.146;2022-12-29T02:48:38;16.40;78.80
48734;DHT22;34530;52.084;5.146;2022-12-29T02:51:20;16.40;78.70
48734;DHT22;34530;52.084;5.146;2022-12-29T02:53:46;16.40;78.70
48734;DHT22;34530;52.084;5.146;2022-12-29T02:56:31;16.40;79.50
48734;DHT22;34530;52.084;5.146;2022-12-29T02:58:57;16.40;78.70
48734;DHT22;34530;52.084;5.146;2022-12-29T03:01:45;16.40;78.70
48734;DHT22;34530;52.084;5.146;2022-12-29T03:05:04;16.40;78.60
48734;DHT22;34530;52.084;5.146;2022-12-29T03:10:39;16.40;78.60
48734;DHT22;34530;52.084;5.146;2022-12-29T03:16:31;16.40;78.60
48734;DHT22;34530;52.084;5.146;2022-12-29T03:19:28;16.40;78.60
48734;DHT22;34530;52.084;5.146;2022-12-29T03:22:08;16.40;78.60
48734;DHT22;34530;52.084;5.146;2022-12-29T03:25:03;16.40;78.60
48734;DHT22;34530;52.084;5.146;2022-12-29T03:27:41;16.40;78.60
48734;DHT22;34530;52.084;5.146;2022-12-29T03:30:08;16.40;78.60
48734;DHT22;34530;52.084;5.146;2022-12-29T03:32:49;16.30;78.50
48734;DHT22;34530;52.084;5.146;2022-12-29T03:35:17;16.40;78.50
48734;DHT22;34530;52.084;5.146;2022-12-29T03:38:02;16.40;78.50
48734;DHT22;34530;52.084;5.146;2022-12-29T03:40:33;16.40;78.50
48734;DHT22;34530;52.084;5.146;2022-12-29T03:43:01;16.40;78.50
48734;DHT22;34530;52.084;5.146;2022-12-29T03:45:27;16.30;78.50
48734;DHT22;34530;52.084;5.146;2022-12-29T03:47:53;16.40;78.50
48734;DHT22;34530;52.084;5.146;2022-12-29T03:50:19;16.40;78.50
48734;DHT22;34530;52.084;5.146;2022-12-29T03:52:44;16.40;78.50
48734;DHT22;34530;52.084;5.146;2022-12-29T03:55:10;16.40;78.40
48734;DHT22;34530;52.084;5.146;2022-12-29T03:57:36;16.40;78.40
48734;DHT22;34530;52.084;5.146;2022-12-29T04:00:04;16.40;79.10
48734;DHT22;34530;52.084;5.146;2022-12-29T04:02:30;16.40;78.30
48734;DHT22;34530;52.084;5.146;2022-12-29T04:04:56;16.40;78.30
48734;DHT22;34530;52.084;5.146;2022-12-29T04:07:22;16.40;78.30
48734;DHT22;34530;52.084;5.146;2022-12-29T04:09:47;16.40;78.30
48734;DHT22;34530;52.084;5.146;2022-12-29T04:12:13;16.30;78.20
48734;DHT22;34530;52.084;5.146;2022-12-29T04:14:39;16.40;78.20
48734;DHT22;34530;52.084;5.146;2022-12-29T04:17:05;16.40;78.50
48734;DHT22;34530;52.084;5.146;2022-12-29T04:19:31;16.40;78.20
48734;DHT22;34530;52.084;5.146;2022-12-29T04:21:56;16.40;78.90
48734;DHT22;34530;52.084;5.146;2022-12-29T04:24:22;16.30;78.10
48734;DHT22;34530;52.084;5.146;2022-12-29T04:26:48;16.40;78.20
48734;DHT22;34530;52.084;5.146;2022-12-29T04:29:13;16.30;78.20
48734;DHT22;34530;52.084;5.146;2022-12-29T04:31:39;16.40;78.10
48734;DHT22;34530;52.084;5.146;2022-12-29T04:34:04;16.40;78.10
48734;DHT22;34530;52.084;5.146;2022-12-29T04:36:31;16.30;78.10
48734;DHT22;34530;52.084;5.146;2022-12-29T04:38:57;16.30;78.10
48734;DHT22;34530;52.084;5.146;2022-12-29T04:41:23;16.30;78.00
48734;DHT22;34530;52.084;5.146;2022-12-29T04:43:49;16.30;78.00
48734;DHT22;34530;52.084;5.146;2022-12-29T04:46:14;16.30;78.70
48734;DHT22;34530;52.084;5.146;2022-12-29T04:48:40;16.30;77.90
48734;DHT22;34530;52.084;5.146;2022-12-29T04:51:05;16.30;77.90
48734;DHT22;34530;52.084;5.146;2022-12-29T04:53:31;16.30;77.90
48734;DHT22;34530;52.084;5.146;2022-12-29T04:55:56;16.30;77.90
48734;DHT22;34530;52.084;5.146;2022-12-29T04:58:22;16.40;78.10
48734;DHT22;34530;52.084;5.146;2022-12-29T05:00:48;16.30;77.90
48734;DHT22;34530;52.084;5.146;2022-12-29T05:03:13;16.30;77.90
48734;DHT22;34530;52.084;5.146;2022-12-29T05:05:39;16.30;77.90
48734;DHT22;34530;52.084;5.146;2022-12-29T05:08:04;16.30;77.80
48734;DHT22;34530;52.084;5.146;2022-12-29T05:10:30;16.30;77.80
48734;DHT22;34530;52.084;5.146;2022-12-29T05:12:56;16.30;77.80
48734;DHT22;34530;52.084;5.146;2022-12-29T05:15:22;16.30;77.80
48734;DHT22;34530;52.084;5.146;2022-12-29T05:17:48;16.30;77.80
48734;DHT22;34530;52.084;5.146;2022-12-29T05:20:14;16.30;77.80
48734;DHT22;34530;52.084;5.146;2022-12-29T05:22:39;16.30;77.70
48734;DHT22;34530;52.084;5.146;2022-12-29T05:25:05;16.30;77.70
48734;DHT22;34530;52.084;5.146;2022-12-29T05:27:31;16.30;77.70
48734;DHT22;34530;52.084;5.146;2022-12-29T05:29:57;16.30;77.60
48734;DHT22;34530;52.084;5.146;2022-12-29T05:32:22;16.30;77.70
48734;DHT22;34530;52.084;5.146;2022-12-29T05:34:48;16.30;77.70
48734;DHT22;34530;52.084;5.146;2022-12-29T05:37:14;16.30;77.60
48734;DHT22;34530;52.084;5.146;2022-12-29T05:39:39;16.30;77.60
48734;DHT22;34530;52.084;5.146;2022-12-29T05:42:05;16.30;77.60
48734;DHT22;34530;52.084;5.146;2022-12-29T05:44:30;16.30;77.60
48734;DHT22;34530;52.084;5.146;2022-12-29T05:46:56;16.30;77.60
48734;DHT22;34530;52.084;5.146;2022-12-29T05:49:21;16.30;77.50
48734;DHT22;34530;52.084;5.146;2022-12-29T05:51:47;16.30;77.50
48734;DHT22;34530;52.084;5.146;2022-12-29T05:54:13;16.30;77.50
48734;DHT22;34530;52.084;5.146;2022-12-29T05:56:38;16.30;77.50
48734;DHT22;34530;52.084;5.146;2022-12-29T05:59:04;16.30;77.50
48734;DHT22;34530;52.084;5.146;2022-12-29T06:01:30;16.30;77.40
48734;DHT22;34530;52.084;5.146;2022-12-29T06:03:55;16.30;77.40
48734;DHT22;34530;52.084;5.146;2022-12-29T06:06:21;16.30;77.40
48734;DHT22;34530;52.084;5.146;2022-12-29T06:08:46;16.20;77.30
48734;DHT22;34530;52.084;5.146;2022-12-29T06:11:12;16.20;77.30
48734;DHT22;34530;52.084;5.146;2022-12-29T06:13:38;16.20;77.30
48734;DHT22;34530;52.084;5.146;2022-12-29T06:16:04;16.20;77.30
48734;DHT22;34530;52.084;5.146;2022-12-29T06:18:29;16.20;77.30
48734;DHT22;34530;52.084;5.146;2022-12-29T06:21:03;16.20;77.30
48734;DHT22;34530;52.084;5.146;2022-12-29T06:23:28;16.20;77.20
48734;DHT22;34530;52.084;5.146;2022-12-29T06:25:54;16.20;77.20
48734;DHT22;34530;52.084;5.146;2022-12-29T06:28:20;16.20;77.90
48734;DHT22;34530;52.084;5.146;2022-12-29T06:30:46;16.20;77.20
48734;DHT22;34530;52.084;5.146;2022-12-29T06:33:13;16.20;77.20
48734;DHT22;34530;52.084;5.146;2022-12-29T06:35:39;16.20;77.20
48734;DHT22;34530;52.084;5.146;2022-12-29T06:38:04;16.20;77.20
48734;DHT22;34530;52.084;5.146;2022-12-29T06:40:31;16.20;77.10
48734;DHT22;34530;52.084;5.146;2022-12-29T06:42:56;16.20;77.20
48734;DHT22;34530;52.084;5.146;2022-12-29T06:45:22;16.20;77.10
48734;DHT22;34530;52.084;5.146;2022-12-29T06:47:48;16.20;77.10
48734;DHT22;34530;52.084;5.146;2022-12-29T06:50:13;16.20;77.20
48734;DHT22;34530;52.084;5.146;2022-12-29T06:52:39;16.20;77.20
48734;DHT22;34530;52.084;5.146;2022-12-29T06:55:05;16.20;77.20
48734;DHT22;34530;52.084;5.146;2022-12-29T06:57:31;16.20;77.40
48734;DHT22;34530;52.084;5.146;2022-12-29T06:59:57;16.20;77.50
48734;DHT22;34530;52.084;5.146;2022-12-29T07:02:23;16.20;77.60
48734;DHT22;34530;52.084;5.146;2022-12-29T07:04:51;16.30;77.70
48734;DHT22;34530;52.084;5.146;2022-12-29T07:07:18;16.30;77.70
48734;DHT22;34530;52.084;5.146;2022-12-29T07:09:44;16.40;77.80
48734;DHT22;34530;52.084;5.146;2022-12-29T07:12:09;16.40;77.70
48734;DHT22;34530;52.084;5.146;2022-12-29T07:14:35;16.50;77.70
48734;DHT22;34530;52.084;5.146;2022-12-29T07:17:01;16.50;77.60
48734;DHT22;34530;52.084;5.146;2022-12-29T07:19:30;16.60;77.50
48734;DHT22;34530;52.084;5.146;2022-12-29T07:21:56;16.60;77.30
48734;DHT22;34530;52.084;5.146;2022-12-29T07:24:22;16.70;77.20
48734;DHT22;34530;52.084;5.146;2022-12-29T07:26:47;16.80;77.10
48734;DHT22;34530;52.084;5.146;2022-12-29T07:29:13;16.90;76.90
48734;DHT22;34530;52.084;5.146;2022-12-29T07:31:39;17.00;76.80
48734;DHT22;34530;52.084;5.146;2022-12-29T07:34:04;17.00;76.60
48734;DHT22;34530;52.084;5.146;2022-12-29T07:36:30;17.10;76.40
48734;DHT22;34530;52.084;5.146;2022-12-29T07:38:55;17.10;76.10
48734;DHT22;34530;52.084;5.146;2022-12-29T07:41:21;17.20;76.00
48734;DHT22;34530;52.084;5.146;2022-12-29T07:43:47;17.30;75.80
48734;DHT22;34530;52.084;5.146;2022-12-29T07:46:14;17.40;75.70
48734;DHT22;34530;52.084;5.146;2022-12-29T07:48:40;17.40;75.40
48734;DHT22;34530;52.084;5.146;2022-12-29T07:51:05;17.40;75.30
48734;DHT22;34530;52.084;5.146;2022-12-29T07:53:32;17.40;75.00
48734;DHT22;34530;52.084;5.146;2022-12-29T07:55:57;17.50;75.00
48734;DHT22;34530;52.084;5.146;2022-12-29T07:58:23;17.40;74.70
48734;DHT22;34530;52.084;5.146;2022-12-29T08:00:55;17.50;74.70
48734;DHT22;34530;52.084;5.146;2022-12-29T08:03:21;17.50;74.50
48734;DHT22;34530;52.084;5.146;2022-12-29T08:05:47;17.40;74.30
48734;DHT22;34530;52.084;5.146;2022-12-29T08:08:13;17.50;74.30
48734;DHT22;34530;52.084;5.146;2022-12-29T08:10:39;17.50;74.30
48734;DHT22;34530;52.084;5.146;2022-12-29T08:13:04;17.40;74.30
48734;DHT22;34530;52.084;5.146;2022-12-29T08:15:30;17.40;74.20
48734;DHT22;34530;52.084;5.146;2022-12-29T08:17:55;17.40;74.30
48734;DHT22;34530;52.084;5.146;2022-12-29T08:20:21;17.30;74.20
48734;DHT22;34530;52.084;5.146;2022-12-29T08:22:47;17.30;74.30
48734;DHT22;34530;52.084;5.146;2022-12-29T08:25:12;17.30;74.40
48734;DHT22;34530;52.084;5.146;2022-12-29T08:27:38;17.30;74.40
48734;DHT22;34530;52.084;5.146;2022-12-29T08:30:08;17.30;74.50
48734;DHT22;34530;52.084;5.146;2022-12-29T08:32:33;17.30;74.60
48734;DHT22;34530;52.084;5.146;2022-12-29T08:34:59;17.20;74.60
48734;DHT22;34530;52.084;5.146;2022-12-29T08:37:25;17.20;74.70
48734;DHT22;34530;52.084;5.146;2022-12-29T08:39:51;17.20;74.70
48734;DHT22;34530;52.084;5.146;2022-12-29T08:42:17;17.20;74.70
48734;DHT22;34530;52.084;5.146;2022-12-29T08:44:42;17.20;74.70
48734;DHT22;34530;52.084;5.146;2022-12-29T08:47:10;17.20;74.70
48734;DHT22;34530;52.084;5.146;2022-12-29T08:49:36;17.20;74.80
48734;DHT22;34530;52.084;5.146;2022-12-29T08:52:01;17.20;74.90
48734;DHT22;34530;52.084;5.146;2022-12-29T08:54:30;17.20;74.90
48734;DHT22;34530;52.084;5.146;2022-12-29T08:56:55;17.20;74.90
48734;DHT22;34530;52.084;5.146;2022-12-29T08:59:21;17.10;74.80
48734;DHT22;34530;52.084;5.146;2022-12-29T09:01:49;17.10;74.80
48734;DHT22;34530;52.084;5.146;2022-12-29T09:04:14;17.10;74.80
48734;DHT22;34530;52.084;5.146;2022-12-29T09:06:40;17.10;74.80
48734;DHT22;34530;52.084;5.146;2022-12-29T09:09:06;17.20;74.90
48734;DHT22;34530;52.084;5.146;2022-12-29T09:11:32;17.10;74.80
48734;DHT22;34530;52.084;5.146;2022-12-29T09:13:57;17.10;74.80
48734;DHT22;34530;52.084;5.146;2022-12-29T09:16:23;17.10;74.80
48734;DHT22;34530;52.084;5.146;2022-12-29T09:18:49;17.10;74.80
48734;DHT22;34530;52.084;5.146;2022-12-29T09:21:15;17.10;74.80
48734;DHT22;34530;52.084;5.146;2022-12-29T09:23:41;17.00;74.80
48734;DHT22;34530;52.084;5.146;2022-12-29T09:26:07;17.00;74.80
48734;DHT22;34530;52.084;5.146;2022-12-29T09:28:33;17.00;74.70
48734;DHT22;34530;52.084;5.146;2022-12-29T09:31:00;17.00;74.70
48734;DHT22;34530;52.084;5.146;2022-12-29T09:33:26;17.00;74.70
48734;DHT22;34530;52.084;5.146;2022-12-29T09:35:55;17.00;74.70
48734;DHT22;34530;52.084;5.146;2022-12-29T09:38:21;16.90;74.60
48734;DHT22;34530;52.084;5.146;2022-12-29T09:41:01;16.90;74.70
48734;DHT22;34530;52.084;5.146;2022-12-29T09:43:55;16.90;74.70
48734;DHT22;34530;52.084;5.146;2022-12-29T09:46:32;16.90;74.70
48734;DHT22;34530;52.084;5.146;2022-12-29T09:49:21;16.90;74.70
48734;DHT22;34530;52.084;5.146;2022-12-29T09:51:55;16.80;74.70
48734;DHT22;34530;52.084;5.146;2022-12-29T09:54:36;16.80;74.80
48734;DHT22;34530;52.084;5.146;2022-12-29T09:57:08;16.80;74.80
48734;DHT22;34530;52.084;5.146;2022-12-29T09:59:41;16.80;74.90
48734;DHT22;34530;52.084;5.146;2022-12-29T10:04:51;16.70;74.80
48734;DHT22;34530;52.084;5.146;2022-12-29T10:07:40;16.70;75.00
48734;DHT22;34530;52.084;5.146;2022-12-29T10:10:35;16.70;75.00
48734;DHT22;34530;52.084;5.146;2022-12-29T10:21:08;16.60;75.10
48734;DHT22;34530;52.084;5.146;2022-12-29T10:23:44;16.60;75.10
48734;DHT22;34530;52.084;5.146;2022-12-29T10:26:17;16.60;75.10
48734;DHT22;34530;52.084;5.146;2022-12-29T10:28:48;16.60;75.20
48734;DHT22;34530;52.084;5.146;2022-12-29T10:31:23;16.60;75.10
48734;DHT22;34530;52.084;5.146;2022-12-29T10:33:53;16.60;75.10
48734;DHT22;34530;52.084;5.146;2022-12-29T10:36:39;16.60;75.20
48734;DHT22;34530;52.084;5.146;2022-12-29T10:39:23;16.60;75.10
48734;DHT22;34530;52.084;5.146;2022-12-29T10:44:33;16.50;75.20
48734;DHT22;34530;52.084;5.146;2022-12-29T10:47:04;16.50;75.20
48734;DHT22;34530;52.084;5.146;2022-12-29T10:49:32;16.50;75.30
48734;DHT22;34530;52.084;5.146;2022-12-29T10:52:03;16.50;75.20
48734;DHT22;34530;52.084;5.146;2022-12-29T10:54:51;16.50;75.20
48734;DHT22;34530;52.084;5.146;2022-12-29T10:57:26;16.50;75.10
48734;DHT22;34530;52.084;5.146;2022-12-29T10:59:54;16.50;75.10
48734;DHT22;34530;52.084;5.146;2022-12-29T11:07:50;16.50;75.10
48734;DHT22;34530;52.084;5.146;2022-12-29T11:10:21;16.50;75.20
48734;DHT22;34530;52.084;5.146;2022-12-29T11:13:12;16.40;75.10
48734;DHT22;34530;52.084;5.146;2022-12-29T11:15:41;16.50;75.10
48734;DHT22;34530;52.084;5.146;2022-12-29T11:20:50;16.40;75.10
48734;DHT22;34530;52.084;5.146;2022-12-29T11:26:15;16.50;75.20
48734;DHT22;34530;52.084;5.146;2022-12-29T11:28:44;16.50;75.20
48734;DHT22;34530;52.084;5.146;2022-12-29T11:31:16;16.50;75.20
48734;DHT22;34530;52.084;5.146;2022-12-29T11:33:42;16.50;75.20
48734;DHT22;34530;52.084;5.146;2022-12-29T11:36:16;16.40;75.10
48734;DHT22;34530;52.084;5.146;2022-12-29T11:38:47;16.50;75.10
48734;DHT22;34530;52.084;5.146;2022-12-29T11:41:21;16.50;75.10
48734;DHT22;34530;52.084;5.146;2022-12-29T11:43:47;16.50;75.20
48734;DHT22;34530;52.084;5.146;2022-12-29T11:46:33;16.50;75.10
48734;DHT22;34530;52.084;5.146;2022-12-29T11:48:59;16.40;75.00
48734;DHT22;34530;52.084;5.146;2022-12-29T11:51:34;16.40;75.10
48734;DHT22;34530;52.084;5.146;2022-12-29T11:54:04;16.50;75.10
48734;DHT22;34530;52.084;5.146;2022-12-29T11:56:39;16.40;75.00
48734;DHT22;34530;52.084;5.146;2022-12-29T11:59:36;16.50;75.10
48734;DHT22;34530;52.084;5.146;2022-12-29T12:03:05;16.40;75.00
48734;DHT22;34530;52.084;5.146;2022-12-29T12:08:11;16.40;75.00
48734;DHT22;34530;52.084;5.146;2022-12-29T12:10:45;16.40;75.10
48734;DHT22;34530;52.084;5.146;2022-12-29T12:13:21;16.40;75.10
48734;DHT22;34530;52.084;5.146;2022-12-29T12:16:02;16.40;75.10
48734;DHT22;34530;52.084;5.146;2022-12-29T12:21:05;16.40;75.10
48734;DHT22;34530;52.084;5.146;2022-12-29T12:27:15;16.40;75.00
48734;DHT22;34530;52.084;5.146;2022-12-29T12:29:18;16.40;75.10
48734;DHT22;34530;52.084;5.146;2022-12-29T12:31:53;16.40;75.10
48734;DHT22;34530;52.084;5.146;2022-12-29T12:34:46;16.40;75.10
48734;DHT22;34530;52.084;5.146;2022-12-29T12:48:59;16.30;75.10
48734;DHT22;34530;52.084;5.146;2022-12-29T12:57:46;16.30;75.70
48734;DHT22;34530;52.084;5.146;2022-12-29T13:00:08;16.30;75.00
48734;DHT22;34530;52.084;5.146;2022-12-29T13:02:46;16.30;75.00
48734;DHT22;34530;52.084;5.146;2022-12-29T13:11:34;16.30;74.90
48734;DHT22;34530;52.084;5.146;2022-12-29T13:19:41;16.30;75.00
48734;DHT22;34530;52.084;5.146;2022-12-29T13:22:24;16.30;75.00
48734;DHT22;34530;52.084;5.146;2022-12-29T13:30:05;16.30;74.90
48734;DHT22;34530;52.084;5.146;2022-12-29T13:32:55;16.30;74.90
48734;DHT22;34530;52.084;5.146;2022-12-29T13:35:44;16.30;74.80
48734;DHT22;34530;52.084;5.146;2022-12-29T13:40:50;16.30;74.80
48734;DHT22;34530;52.084;5.146;2022-12-29T13:43:19;16.30;74.80
48734;DHT22;34530;52.084;5.146;2022-12-29T13:45:50;16.30;74.80
48734;DHT22;34530;52.084;5.146;2022-12-29T13:48:23;16.30;74.80
48734;DHT22;34530;52.084;5.146;2022-12-29T13:50:57;16.30;74.90
48734;DHT22;34530;52.084;5.146;2022-12-29T13:53:42;16.30;74.70
48734;DHT22;34530;52.084;5.146;2022-12-29T13:56:16;16.30;74.70
48734;DHT22;34530;52.084;5.146;2022-12-29T13:59:00;16.30;74.70
48734;DHT22;34530;52.084;5.146;2022-12-29T14:01:59;16.30;74.60
48734;DHT22;34530;52.084;5.146;2022-12-29T14:04:29;16.30;74.60
48734;DHT22;34530;52.084;5.146;2022-12-29T14:07:19;16.30;74.60
48734;DHT22;34530;52.084;5.146;2022-12-29T14:09:50;16.30;74.60
48734;DHT22;34530;52.084;5.146;2022-12-29T14:12:38;16.30;74.50
48734;DHT22;34530;52.084;5.146;2022-12-29T14:17:37;16.30;74.50
48734;DHT22;34530;52.084;5.146;2022-12-29T14:20:05;16.30;74.50
48734;DHT22;34530;52.084;5.146;2022-12-29T14:22:33;16.30;74.50
48734;DHT22;34530;52.084;5.146;2022-12-29T14:24:59;16.20;74.40
48734;DHT22;34530;52.084;5.146;2022-12-29T14:29:53;16.30;74.40
48734;DHT22;34530;52.084;5.146;2022-12-29T14:34:51;16.30;74.40
48734;DHT22;34530;52.084;5.146;2022-12-29T14:37:31;16.20;74.30
48734;DHT22;34530;52.084;5.146;2022-12-29T14:40:25;16.30;74.40
48734;DHT22;34530;52.084;5.146;2022-12-29T14:42:54;16.30;74.40
48734;DHT22;34530;52.084;5.146;2022-12-29T14:47:46;16.20;75.00
48734;DHT22;34530;52.084;5.146;2022-12-29T14:50:41;16.20;74.30
48734;DHT22;34530;52.084;5.146;2022-12-29T14:53:41;16.20;74.20
48734;DHT22;34530;52.084;5.146;2022-12-29T14:56:10;16.20;74.20
48734;DHT22;34530;52.084;5.146;2022-12-29T15:04:00;16.20;74.10
48734;DHT22;34530;52.084;5.146;2022-12-29T15:06:30;16.20;74.20
48734;DHT22;34530;52.084;5.146;2022-12-29T15:09:17;16.20;74.10
48734;DHT22;34530;52.084;5.146;2022-12-29T15:11:52;16.20;74.00
48734;DHT22;34530;52.084;5.146;2022-12-29T15:14:36;16.20;74.10
48734;DHT22;34530;52.084;5.146;2022-12-29T15:17:10;16.20;74.00
48734;DHT22;34530;52.084;5.146;2022-12-29T15:19:36;16.20;74.10
48734;DHT22;34530;52.084;5.146;2022-12-29T15:22:02;16.20;74.10
48734;DHT22;34530;52.084;5.146;2022-12-29T15:24:28;16.20;74.10
48734;DHT22;34530;52.084;5.146;2022-12-29T15:26:54;16.20;74.00
48734;DHT22;34530;52.084;5.146;2022-12-29T15:29:39;16.20;74.00
48734;DHT22;34530;52.084;5.146;2022-12-29T15:32:21;16.20;73.90
48734;DHT22;34530;52.084;5.146;2022-12-29T15:34:50;16.20;74.00
48734;DHT22;34530;52.084;5.146;2022-12-29T15:37:24;16.20;74.00
48734;DHT22;34530;52.084;5.146;2022-12-29T15:39:51;16.20;74.00
48734;DHT22;34530;52.084;5.146;2022-12-29T15:44:58;16.20;73.90
48734;DHT22;34530;52.084;5.146;2022-12-29T15:47:29;16.20;73.90
48734;DHT22;34530;52.084;5.146;2022-12-29T15:50:29;16.20;73.90
48734;DHT22;34530;52.084;5.146;2022-12-29T15:52:55;16.20;73.80
48734;DHT22;34530;52.084;5.146;2022-12-29T15:55:37;16.20;73.90
48734;DHT22;34530;52.084;5.146;2022-12-29T15:58:15;16.20;73.80
48734;DHT22;34530;52.084;5.146;2022-12-29T16:00:48;16.10;73.80
48734;DHT22;34530;52.084;5.146;2022-12-29T16:03:15;16.20;73.80
48734;DHT22;34530;52.084;5.146;2022-12-29T16:05:42;16.10;73.80
48734;DHT22;34530;52.084;5.146;2022-12-29T16:08:35;16.10;73.80
48734;DHT22;34530;52.084;5.146;2022-12-29T16:11:08;16.20;73.70
48734;DHT22;34530;52.084;5.146;2022-12-29T16:13:41;16.10;73.70
48734;DHT22;34530;52.084;5.146;2022-12-29T16:16:14;16.10;73.80
48734;DHT22;34530;52.084;5.146;2022-12-29T16:18:41;16.20;73.80
48734;DHT22;34530;52.084;5.146;2022-12-29T16:21:23;16.10;73.70
48734;DHT22;34530;52.084;5.146;2022-12-29T16:23:51;16.10;73.70
48734;DHT22;34530;52.084;5.146;2022-12-29T16:26:19;16.10;73.70
48734;DHT22;34530;52.084;5.146;2022-12-29T16:28:48;16.10;73.70
48734;DHT22;34530;52.084;5.146;2022-12-29T16:33:58;16.10;73.60
48734;DHT22;34530;52.084;5.146;2022-12-29T16:36:33;16.10;73.70
48734;DHT22;34530;52.084;5.146;2022-12-29T16:39:20;16.10;73.70
48734;DHT22;34530;52.084;5.146;2022-12-29T16:41:50;16.10;73.60
48734;DHT22;34530;52.084;5.146;2022-12-29T16:44:22;16.10;73.60
48734;DHT22;34530;52.084;5.146;2022-12-29T16:49:23;16.10;73.60
48734;DHT22;34530;52.084;5.146;2022-12-29T16:51:51;16.10;73.60
48734;DHT22;34530;52.084;5.146;2022-12-29T16:54:39;16.10;73.60
48734;DHT22;34530;52.084;5.146;2022-12-29T16:57:07;16.10;73.50
48734;DHT22;34530;52.084;5.146;2022-12-29T16:59:34;16.10;73.60
48734;DHT22;34530;52.084;5.146;2022-12-29T17:02:06;16.10;73.60
48734;DHT22;34530;52.084;5.146;2022-12-29T17:04:32;16.10;73.50
48734;DHT22;34530;52.084;5.146;2022-12-29T17:06:58;16.10;73.50
48734;DHT22;34530;52.084;5.146;2022-12-29T17:09:27;16.10;73.50
48734;DHT22;34530;52.084;5.146;2022-12-29T17:11:58;16.10;73.50
48734;DHT22;34530;52.084;5.146;2022-12-29T17:14:53;16.10;73.50
48734;DHT22;34530;52.084;5.146;2022-12-29T17:17:35;16.10;73.50
48734;DHT22;34530;52.084;5.146;2022-12-29T17:20:04;16.10;73.40
48734;DHT22;34530;52.084;5.146;2022-12-29T17:22:31;16.00;73.40
48734;DHT22;34530;52.084;5.146;2022-12-29T17:24:58;16.00;73.50
48734;DHT22;34530;52.084;5.146;2022-12-29T17:28:03;16.00;73.40
48734;DHT22;34530;52.084;5.146;2022-12-29T17:30:32;16.00;73.30
48734;DHT22;34530;52.084;5.146;2022-12-29T17:33:02;16.00;73.40
48734;DHT22;34530;52.084;5.146;2022-12-29T17:35:28;16.00;73.40
48734;DHT22;34530;52.084;5.146;2022-12-29T17:37:54;16.00;73.40
48734;DHT22;34530;52.084;5.146;2022-12-29T17:40:26;16.00;73.40
48734;DHT22;34530;52.084;5.146;2022-12-29T17:42:53;16.00;73.30
48734;DHT22;34530;52.084;5.146;2022-12-29T17:45:25;16.00;73.30
48734;DHT22;34530;52.084;5.146;2022-12-29T17:47:51;16.00;73.30
48734;DHT22;34530;52.084;5.146;2022-12-29T17:50:19;16.00;73.30
48734;DHT22;34530;52.084;5.146;2022-12-29T17:52:59;16.00;73.30
48734;DHT22;34530;52.084;5.146;2022-12-29T17:55:26;16.00;73.30
48734;DHT22;34530;52.084;5.146;2022-12-29T17:57:52;16.00;73.30
48734;DHT22;34530;52.084;5.146;2022-12-29T18:00:21;16.00;73.30
48734;DHT22;34530;52.084;5.146;2022-12-29T18:02:48;16.00;73.20